sensor_id;sensor_type;location;lat;lon;timestamp;temperature;humidity
11629;DHT22;5870;52.320;4.970;2022-08-02T00:01:31;22.70;99.90
11629;DHT22;5870;52.320;4.970;2022-08-02T00:03:56;22.60;99.90
11629;DHT22;5870;52.320;4.970;2022-08-02T00:06:22;22.60;99.90
11629;DHT22;5870;52.320;4.970;2022-08-02T00:08:48;22.60;99.90
11629;DHT22;5870;52.320;4.970;2022-08-02T00:11:14;22.60;99.90
11629;DHT22;5870;52.320;4.970;2022-08-02T00:13:39;22.60;99.90
11629;DHT22;5870;52.320;4.970;2022-08-02T00:16:05;22.50;99.90
11629;DHT22;5870;52.320;4.970;2022-08-02T00:18:31;22.50;99.90
11629;DHT22;5870;52.320;4.970;2022-08-02T00:20:56;22.50;99.90
11629;DHT22;5870;52.320;4.970;2022-08-02T00:23:22;22.60;99.90
11629;DHT22;5870;52.320;4.970;2022-08-02T00:25:47;22.50;99.90
11629;DHT22;5870;52.320;4.970;2022-08-02T00:28:13;22.50;99.90
11629;DHT22;5870;52.320;4.970;2022-08-02T00:30:39;22.50;99.90
11629;DHT22;5870;52.320;4.970;2022-08-02T00:33:05;22.50;99.90
11629;DHT22;5870;52.320;4.970;2022-08-02T00:35:31;22.50;99.90
11629;DHT22;5870;52.320;4.970;2022-08-02T00:37:56;22.50;99.90
11629;DHT22;5870;52.320;4.970;2022-08-02T00:40:23;22.50;99.90
11629;DHT22;5870;52.320;4.970;2022-08-02T00:45:36;22.40;99.90
11629;DHT22;5870;52.320;4.970;2022-08-02T00:48:02;22.40;99.90
11629;DHT22;5870;52.320;4.970;2022-08-02T00:50:28;22.40;99.90
11629;DHT22;5870;52.320;4.970;2022-08-02T00:52:54;22.40;99.90
11629;DHT22;5870;52.320;4.970;2022-08-02T00:55:20;22.40;99.90
11629;DHT22;5870;52.320;4.970;2022-08-02T00:57:46;22.40;99.90
11629;DHT22;5870;52.320;4.970;2022-08-02T01:00:12;22.40;99.90
11629;DHT22;5870;52.320;4.970;2022-08-02T01:02:38;22.40;99.90
11629;DHT22;5870;52.320;4.970;2022-08-02T01:05:04;22.40;99.90
11629;DHT22;5870;52.320;4.970;2022-08-02T01:07:30;22.40;99.90
11629;DHT22;5870;52.320;4.970;2022-08-02T01:09:55;22.40;99.90
11629;DHT22;5870;52.320;4.970;2022-08-02T01:12:21;22.30;99.90
11629;DHT22;5870;52.320;4.970;2022-08-02T01:14:49;22.30;99.90
11629;DHT22;5870;52.320;4.970;2022-08-02T01:28:23;22.20;99.90
11629;DHT22;5870;52.320;4.970;2022-08-02T01:30:56;22.30;99.90
11629;DHT22;5870;52.320;4.970;2022-08-02T01:33:25;22.30;99.90
11629;DHT22;5870;52.320;4.970;2022-08-02T01:35:54;22.30;99.90
11629;DHT22;5870;52.320;4.970;2022-08-02T01:38:28;22.30;99.90
11629;DHT22;5870;52.320;4.970;2022-08-02T01:40:56;22.20;99.90
11629;DHT22;5870;52.320;4.970;2022-08-02T01:43:23;22.20;99.90
11629;DHT22;5870;52.320;4.970;2022-08-02T01:45:50;22.20;99.90
11629;DHT22;5870;52.320;4.970;2022-08-02T01:48:16;22.20;99.90
11629;DHT22;5870;52.320;4.970;2022-08-02T01:50:45;22.20;99.90
11629;DHT22;5870;52.320;4.970;2022-08-02T01:53:11;22.20;99.90
11629;DHT22;5870;52.320;4.970;2022-08-02T01:55:47;22.20;99.90
11629;DHT22;5870;52.320;4.970;2022-08-02T01:58:16;22.20;99.90
11629;DHT22;5870;52.320;4.970;2022-08-02T02:00:43;22.20;99.90
11629;DHT22;5870;52.320;4.970;2022-08-02T02:03:18;22.20;99.90
11629;DHT22;5870;52.320;4.970;2022-08-02T02:05:46;22.20;99.90
11629;DHT22;5870;52.320;4.970;2022-08-02T02:08:14;22.20;99.90
11629;DHT22;5870;52.320;4.970;2022-08-02T02:10:41;22.20;99.90
11629;DHT22;5870;52.320;4.970;2022-08-02T02:13:13;22.20;99.90
11629;DHT22;5870;52.320;4.970;2022-08-02T02:15:42;22.20;99.90
11629;DHT22;5870;52.320;4.970;2022-08-02T02:18:11;22.20;99.90
11629;DHT22;5870;52.320;4.970;2022-08-02T02:20:39;22.20;99.90
11629;DHT22;5870;52.320;4.970;2022-08-02T02:23:05;22.20;99.90
11629;DHT22;5870;52.320;4.970;2022-08-02T02:25:31;22.20;99.90
11629;DHT22;5870;52.320;4.970;2022-08-02T02:28:02;22.20;99.90
11629;DHT22;5870;52.320;4.970;2022-08-02T02:30:29;22.20;99.90
11629;DHT22;5870;52.320;4.970;2022-08-02T02:32:58;22.20;99.90
11629;DHT22;5870;52.320;4.970;2022-08-02T02:35:29;22.20;99.90
11629;DHT22;5870;52.320;4.970;2022-08-02T02:37:59;22.20;99.90
11629;DHT22;5870;52.320;4.970;2022-08-02T02:40:27;22.20;99.90
11629;DHT22;5870;52.320;4.970;2022-08-02T02:42:55;22.20;99.90
11629;DHT22;5870;52.320;4.970;2022-08-02T02:45:21;22.10;99.90
11629;DHT22;5870;52.320;4.970;2022-08-02T02:47:47;22.10;99.90
11629;DHT22;5870;52.320;4.970;2022-08-02T02:50:15;22.10;99.90
11629;DHT22;5870;52.320;4.970;2022-08-02T02:52:42;22.10;99.90
11629;DHT22;5870;52.320;4.970;2022-08-02T02:55:09;22.10;99.90
11629;DHT22;5870;52.320;4.970;2022-08-02T02:57:36;22.10;99.90
11629;DHT22;5870;52.320;4.970;2022-08-02T03:00:08;22.00;99.90
11629;DHT22;5870;52.320;4.970;2022-08-02T03:02:37;22.00;99.90
11629;DHT22;5870;52.320;4.970;2022-08-02T03:05:04;22.10;99.90
11629;DHT22;5870;52.320;4.970;2022-08-02T03:07:31;22.10;99.90
11629;DHT22;5870;52.320;4.970;2022-08-02T03:09:58;22.10;99.90
11629;DHT22;5870;52.320;4.970;2022-08-02T03:12:24;22.00;99.90
11629;DHT22;5870;52.320;4.970;2022-08-02T03:14:50;22.10;99.90
11629;DHT22;5870;52.320;4.970;2022-08-02T03:17:16;22.00;99.90
11629;DHT22;5870;52.320;4.970;2022-08-02T03:19:42;22.00;99.90
11629;DHT22;5870;52.320;4.970;2022-08-02T03:22:07;22.00;99.90
11629;DHT22;5870;52.320;4.970;2022-08-02T03:24:33;22.00;99.90
11629;DHT22;5870;52.320;4.970;2022-08-02T03:26:58;22.00;99.90
11629;DHT22;5870;52.320;4.970;2022-08-02T03:29:24;22.00;99.90
11629;DHT22;5870;52.320;4.970;2022-08-02T03:31:50;22.00;99.90
11629;DHT22;5870;52.320;4.970;2022-08-02T03:34:16;21.90;99.90
11629;DHT22;5870;52.320;4.970;2022-08-02T03:36:42;21.90;99.90
11629;DHT22;5870;52.320;4.970;2022-08-02T03:39:08;21.90;99.90
11629;DHT22;5870;52.320;4.970;2022-08-02T03:41:36;21.90;99.90
11629;DHT22;5870;52.320;4.970;2022-08-02T03:44:03;22.00;99.90
11629;DHT22;5870;52.320;4.970;2022-08-02T03:46:31;22.00;99.90
11629;DHT22;5870;52.320;4.970;2022-08-02T03:48:57;21.90;99.90
11629;DHT22;5870;52.320;4.970;2022-08-02T03:51:23;22.00;99.90
11629;DHT22;5870;52.320;4.970;2022-08-02T03:53:49;21.90;99.90
11629;DHT22;5870;52.320;4.970;2022-08-02T03:56:15;21.90;99.90
11629;DHT22;5870;52.320;4.970;2022-08-02T03:58:41;21.90;99.90
11629;DHT22;5870;52.320;4.970;2022-08-02T04:01:07;21.90;99.90
11629;DHT22;5870;52.320;4.970;2022-08-02T04:03:32;21.90;99.90
11629;DHT22;5870;52.320;4.970;2022-08-02T04:05:58;21.90;99.90
11629;DHT22;5870;52.320;4.970;2022-08-02T04:08:23;21.90;99.90
11629;DHT22;5870;52.320;4.970;2022-08-02T04:10:49;21.90;99.90
11629;DHT22;5870;52.320;4.970;2022-08-02T04:13:35;21.90;99.90
11629;DHT22;5870;52.320;4.970;2022-08-02T04:16:09;21.90;99.90
11629;DHT22;5870;52.320;4.970;2022-08-02T04:18:40;21.90;99.90
11629;DHT22;5870;52.320;4.970;2022-08-02T04:21:08;21.80;99.90
11629;DHT22;5870;52.320;4.970;2022-08-02T04:23:36;21.80;99.90
11629;DHT22;5870;52.320;4.970;2022-08-02T04:26:03;21.80;99.90
11629;DHT22;5870;52.320;4.970;2022-08-02T04:28:31;21.80;99.90
11629;DHT22;5870;52.320;4.970;2022-08-02T04:30:57;21.80;99.90
11629;DHT22;5870;52.320;4.970;2022-08-02T04:33:24;21.90;99.90
11629;DHT22;5870;52.320;4.970;2022-08-02T04:35:50;21.90;99.90
11629;DHT22;5870;52.320;4.970;2022-08-02T04:38:16;21.90;99.90
11629;DHT22;5870;52.320;4.970;2022-08-02T04:40:53;21.90;99.90
11629;DHT22;5870;52.320;4.970;2022-08-02T04:43:19;21.90;99.90
11629;DHT22;5870;52.320;4.970;2022-08-02T04:45:48;20.90;99.90
11629;DHT22;5870;52.320;4.970;2022-08-02T04:48:15;21.90;99.90
11629;DHT22;5870;52.320;4.970;2022-08-02T04:50:41;21.80;99.90
11629;DHT22;5870;52.320;4.970;2022-08-02T04:53:07;21.80;99.90
11629;DHT22;5870;52.320;4.970;2022-08-02T04:55:32;21.80;99.90
11629;DHT22;5870;52.320;4.970;2022-08-02T04:57:58;21.90;99.90
11629;DHT22;5870;52.320;4.970;2022-08-02T05:00:25;21.80;99.90
11629;DHT22;5870;52.320;4.970;2022-08-02T05:02:51;21.80;99.90
11629;DHT22;5870;52.320;4.970;2022-08-02T05:05:17;21.90;99.90
11629;DHT22;5870;52.320;4.970;2022-08-02T05:07:43;21.90;99.90
11629;DHT22;5870;52.320;4.970;2022-08-02T05:10:09;21.90;99.90
11629;DHT22;5870;52.320;4.970;2022-08-02T05:12:36;21.90;99.90
11629;DHT22;5870;52.320;4.970;2022-08-02T05:15:03;21.90;99.90
11629;DHT22;5870;52.320;4.970;2022-08-02T05:17:32;21.80;99.90
11629;DHT22;5870;52.320;4.970;2022-08-02T05:19:57;21.80;99.90
11629;DHT22;5870;52.320;4.970;2022-08-02T05:22:23;21.80;99.90
11629;DHT22;5870;52.320;4.970;2022-08-02T05:24:49;21.90;99.90
11629;DHT22;5870;52.320;4.970;2022-08-02T05:27:14;21.90;99.90
11629;DHT22;5870;52.320;4.970;2022-08-02T05:29:40;21.90;99.90
11629;DHT22;5870;52.320;4.970;2022-08-02T05:32:06;22.00;99.90
11629;DHT22;5870;52.320;4.970;2022-08-02T05:34:31;21.90;99.90
11629;DHT22;5870;52.320;4.970;2022-08-02T05:36:57;22.00;99.90
11629;DHT22;5870;52.320;4.970;2022-08-02T05:39:22;22.10;99.90
11629;DHT22;5870;52.320;4.970;2022-08-02T05:41:48;22.00;99.90
11629;DHT22;5870;52.320;4.970;2022-08-02T05:44:14;22.00;99.90
11629;DHT22;5870;52.320;4.970;2022-08-02T05:46:39;22.10;99.90
11629;DHT22;5870;52.320;4.970;2022-08-02T05:49:05;22.10;99.90
11629;DHT22;5870;52.320;4.970;2022-08-02T05:51:39;22.10;99.90
11629;DHT22;5870;52.320;4.970;2022-08-02T05:54:25;22.10;99.90
11629;DHT22;5870;52.320;4.970;2022-08-02T05:59:32;22.10;99.90
11629;DHT22;5870;52.320;4.970;2022-08-02T06:02:02;22.10;99.90
11629;DHT22;5870;52.320;4.970;2022-08-02T06:04:35;22.20;99.90
11629;DHT22;5870;52.320;4.970;2022-08-02T06:07:08;22.20;99.90
11629;DHT22;5870;52.320;4.970;2022-08-02T06:09:35;22.20;99.90
11629;DHT22;5870;52.320;4.970;2022-08-02T06:12:02;22.20;99.90
11629;DHT22;5870;52.320;4.970;2022-08-02T06:14:32;22.30;99.90
11629;DHT22;5870;52.320;4.970;2022-08-02T06:17:02;22.30;99.90
11629;DHT22;5870;52.320;4.970;2022-08-02T06:19:28;22.20;99.90
11629;DHT22;5870;52.320;4.970;2022-08-02T06:21:54;22.10;99.90
11629;DHT22;5870;52.320;4.970;2022-08-02T06:24:21;22.10;99.90
11629;DHT22;5870;52.320;4.970;2022-08-02T06:26:48;22.20;99.90
11629;DHT22;5870;52.320;4.970;2022-08-02T06:29:19;22.30;99.90
11629;DHT22;5870;52.320;4.970;2022-08-02T06:31:46;22.40;99.90
11629;DHT22;5870;52.320;4.970;2022-08-02T06:34:12;22.50;99.90
11629;DHT22;5870;52.320;4.970;2022-08-02T06:37:01;22.60;99.90
11629;DHT22;5870;52.320;4.970;2022-08-02T06:39:44;22.60;99.90
11629;DHT22;5870;52.320;4.970;2022-08-02T06:42:12;22.60;99.90
11629;DHT22;5870;52.320;4.970;2022-08-02T06:44:39;22.60;99.90
11629;DHT22;5870;52.320;4.970;2022-08-02T06:47:05;22.60;99.90
11629;DHT22;5870;52.320;4.970;2022-08-02T06:49:30;22.60;99.90
11629;DHT22;5870;52.320;4.970;2022-08-02T06:51:56;22.60;99.90
11629;DHT22;5870;52.320;4.970;2022-08-02T06:54:22;22.60;99.90
11629;DHT22;5870;52.320;4.970;2022-08-02T06:56:47;22.50;99.90
11629;DHT22;5870;52.320;4.970;2022-08-02T06:59:13;22.50;99.90
11629;DHT22;5870;52.320;4.970;2022-08-02T07:01:39;22.40;99.90
11629;DHT22;5870;52.320;4.970;2022-08-02T07:04:04;22.30;99.90
11629;DHT22;5870;52.320;4.970;2022-08-02T07:06:30;22.30;99.90
11629;DHT22;5870;52.320;4.970;2022-08-02T07:08:56;22.20;99.90
11629;DHT22;5870;52.320;4.970;2022-08-02T07:11:21;22.20;99.90
11629;DHT22;5870;52.320;4.970;2022-08-02T07:13:48;22.20;99.90
11629;DHT22;5870;52.320;4.970;2022-08-02T07:16:14;22.20;99.90
11629;DHT22;5870;52.320;4.970;2022-08-02T07:18:39;22.10;99.90
11629;DHT22;5870;52.320;4.970;2022-08-02T07:21:05;22.00;99.90
11629;DHT22;5870;52.320;4.970;2022-08-02T07:23:31;21.90;99.90
11629;DHT22;5870;52.320;4.970;2022-08-02T07:25:57;21.90;99.90
11629;DHT22;5870;52.320;4.970;2022-08-02T07:28:23;22.00;99.90
11629;DHT22;5870;52.320;4.970;2022-08-02T07:30:48;22.10;99.90
11629;DHT22;5870;52.320;4.970;2022-08-02T07:33:14;22.10;99.90
11629;DHT22;5870;52.320;4.970;2022-08-02T07:35:40;22.20;99.90
11629;DHT22;5870;52.320;4.970;2022-08-02T07:38:06;22.30;99.90
11629;DHT22;5870;52.320;4.970;2022-08-02T07:40:31;22.30;99.90
11629;DHT22;5870;52.320;4.970;2022-08-02T07:42:57;22.30;99.90
11629;DHT22;5870;52.320;4.970;2022-08-02T07:45:24;22.40;99.90
11629;DHT22;5870;52.320;4.970;2022-08-02T07:47:51;22.40;99.90
11629;DHT22;5870;52.320;4.970;2022-08-02T07:50:18;22.30;99.90
11629;DHT22;5870;52.320;4.970;2022-08-02T07:52:44;22.30;99.90
11629;DHT22;5870;52.320;4.970;2022-08-02T07:55:11;22.30;99.90
11629;DHT22;5870;52.320;4.970;2022-08-02T07:57:39;22.30;99.90
11629;DHT22;5870;52.320;4.970;2022-08-02T08:00:06;22.30;99.90
11629;DHT22;5870;52.320;4.970;2022-08-02T08:02:33;22.40;99.90
11629;DHT22;5870;52.320;4.970;2022-08-02T08:04:58;22.30;99.90
11629;DHT22;5870;52.320;4.970;2022-08-02T08:07:24;22.40;99.90
11629;DHT22;5870;52.320;4.970;2022-08-02T08:09:50;22.50;99.90
11629;DHT22;5870;52.320;4.970;2022-08-02T08:12:15;22.50;99.90
11629;DHT22;5870;52.320;4.970;2022-08-02T08:14:41;22.60;99.90
11629;DHT22;5870;52.320;4.970;2022-08-02T08:17:07;22.70;99.90
11629;DHT22;5870;52.320;4.970;2022-08-02T08:19:34;22.80;99.90
11629;DHT22;5870;52.320;4.970;2022-08-02T08:21:59;22.80;99.90
11629;DHT22;5870;52.320;4.970;2022-08-02T08:24:26;22.90;99.90
11629;DHT22;5870;52.320;4.970;2022-08-02T08:26:52;22.90;99.90
11629;DHT22;5870;52.320;4.970;2022-08-02T08:29:18;22.90;99.90
11629;DHT22;5870;52.320;4.970;2022-08-02T08:31:43;23.00;99.90
11629;DHT22;5870;52.320;4.970;2022-08-02T08:34:09;23.00;99.90
11629;DHT22;5870;52.320;4.970;2022-08-02T08:36:35;23.00;99.90
11629;DHT22;5870;52.320;4.970;2022-08-02T08:39:00;22.90;99.90
11629;DHT22;5870;52.320;4.970;2022-08-02T08:41:26;22.90;99.90
11629;DHT22;5870;52.320;4.970;2022-08-02T08:43:52;22.90;99.90
11629;DHT22;5870;52.320;4.970;2022-08-02T08:46:29;22.90;99.90
11629;DHT22;5870;52.320;4.970;2022-08-02T08:49:00;22.90;99.90
11629;DHT22;5870;52.320;4.970;2022-08-02T08:51:30;22.90;99.90
11629;DHT22;5870;52.320;4.970;2022-08-02T08:54:02;23.00;99.90
11629;DHT22;5870;52.320;4.970;2022-08-02T08:56:32;23.00;99.90
11629;DHT22;5870;52.320;4.970;2022-08-02T08:58:59;23.00;99.90
11629;DHT22;5870;52.320;4.970;2022-08-02T09:01:25;23.00;99.90
11629;DHT22;5870;52.320;4.970;2022-08-02T09:03:50;23.00;99.90
11629;DHT22;5870;52.320;4.970;2022-08-02T09:06:16;23.10;99.90
11629;DHT22;5870;52.320;4.970;2022-08-02T09:08:42;23.20;99.90
11629;DHT22;5870;52.320;4.970;2022-08-02T09:11:12;23.20;99.90
11629;DHT22;5870;52.320;4.970;2022-08-02T09:13:57;23.10;99.90
11629;DHT22;5870;52.320;4.970;2022-08-02T09:16:34;23.10;99.90
11629;DHT22;5870;52.320;4.970;2022-08-02T09:19:22;23.10;99.90
11629;DHT22;5870;52.320;4.970;2022-08-02T09:21:50;23.20;99.90
11629;DHT22;5870;52.320;4.970;2022-08-02T09:24:17;23.20;99.90
11629;DHT22;5870;52.320;4.970;2022-08-02T09:26:43;23.20;99.90
11629;DHT22;5870;52.320;4.970;2022-08-02T09:29:09;23.30;99.90
11629;DHT22;5870;52.320;4.970;2022-08-02T09:31:35;23.30;99.90
11629;DHT22;5870;52.320;4.970;2022-08-02T09:34:01;23.30;99.90
11629;DHT22;5870;52.320;4.970;2022-08-02T09:36:38;23.40;99.90
11629;DHT22;5870;52.320;4.970;2022-08-02T09:39:06;22.30;99.90
11629;DHT22;5870;52.320;4.970;2022-08-02T09:41:37;23.50;99.90
11629;DHT22;5870;52.320;4.970;2022-08-02T09:44:05;23.50;99.90
11629;DHT22;5870;52.320;4.970;2022-08-02T09:46:37;23.50;99.90
11629;DHT22;5870;52.320;4.970;2022-08-02T09:49:11;23.50;99.90
11629;DHT22;5870;52.320;4.970;2022-08-02T09:51:51;23.50;99.90
11629;DHT22;5870;52.320;4.970;2022-08-02T09:54:19;23.50;99.90
11629;DHT22;5870;52.320;4.970;2022-08-02T09:56:48;23.50;99.90
11629;DHT22;5870;52.320;4.970;2022-08-02T09:59:14;23.50;99.90
11629;DHT22;5870;52.320;4.970;2022-08-02T10:01:41;23.60;99.90
11629;DHT22;5870;52.320;4.970;2022-08-02T10:04:09;23.50;99.90
11629;DHT22;5870;52.320;4.970;2022-08-02T10:06:37;23.60;99.90
11629;DHT22;5870;52.320;4.970;2022-08-02T10:09:05;23.70;99.90
11629;DHT22;5870;52.320;4.970;2022-08-02T10:11:31;23.70;99.90
11629;DHT22;5870;52.320;4.970;2022-08-02T10:13:57;23.70;99.90
11629;DHT22;5870;52.320;4.970;2022-08-02T10:16:23;23.70;99.90
11629;DHT22;5870;52.320;4.970;2022-08-02T10:18:54;23.80;99.90
11629;DHT22;5870;52.320;4.970;2022-08-02T10:21:28;23.90;99.90
11629;DHT22;5870;52.320;4.970;2022-08-02T10:24:08;24.00;99.90
11629;DHT22;5870;52.320;4.970;2022-08-02T10:26:38;24.00;99.90
11629;DHT22;5870;52.320;4.970;2022-08-02T10:29:04;24.00;99.90
11629;DHT22;5870;52.320;4.970;2022-08-02T10:31:48;24.00;99.90
11629;DHT22;5870;52.320;4.970;2022-08-02T10:34:17;23.90;99.90
11629;DHT22;5870;52.320;4.970;2022-08-02T10:36:45;24.00;99.90
11629;DHT22;5870;52.320;4.970;2022-08-02T10:39:12;24.00;99.90
11629;DHT22;5870;52.320;4.970;2022-08-02T10:41:45;24.00;99.90
11629;DHT22;5870;52.320;4.970;2022-08-02T10:44:28;24.10;99.90
11629;DHT22;5870;52.320;4.970;2022-08-02T10:52:15;24.20;99.90
11629;DHT22;5870;52.320;4.970;2022-08-02T10:54:42;24.30;99.90
11629;DHT22;5870;52.320;4.970;2022-08-02T10:57:29;24.30;99.90
11629;DHT22;5870;52.320;4.970;2022-08-02T11:02:41;24.30;99.90
11629;DHT22;5870;52.320;4.970;2022-08-02T11:05:09;24.40;99.90
11629;DHT22;5870;52.320;4.970;2022-08-02T11:10:40;24.60;99.90
11629;DHT22;5870;52.320;4.970;2022-08-02T11:13:16;24.60;99.90
11629;DHT22;5870;52.320;4.970;2022-08-02T11:18:19;24.70;99.90
11629;DHT22;5870;52.320;4.970;2022-08-02T11:20:45;24.70;99.90
11629;DHT22;5870;52.320;4.970;2022-08-02T11:23:36;24.80;99.90
11629;DHT22;5870;52.320;4.970;2022-08-02T11:28:56;24.90;99.90
11629;DHT22;5870;52.320;4.970;2022-08-02T11:31:22;24.90;99.90
11629;DHT22;5870;52.320;4.970;2022-08-02T11:33:50;24.90;99.90
11629;DHT22;5870;52.320;4.970;2022-08-02T11:36:16;24.90;99.90
11629;DHT22;5870;52.320;4.970;2022-08-02T11:38:42;24.90;99.90
11629;DHT22;5870;52.320;4.970;2022-08-02T11:41:09;24.90;99.90
11629;DHT22;5870;52.320;4.970;2022-08-02T11:43:35;25.10;99.90
11629;DHT22;5870;52.320;4.970;2022-08-02T11:46:11;25.10;99.90
11629;DHT22;5870;52.320;4.970;2022-08-02T11:48:40;25.10;99.90
11629;DHT22;5870;52.320;4.970;2022-08-02T11:51:11;25.10;99.90
11629;DHT22;5870;52.320;4.970;2022-08-02T11:53:50;25.20;99.90
11629;DHT22;5870;52.320;4.970;2022-08-02T11:56:18;25.20;99.90
11629;DHT22;5870;52.320;4.970;2022-08-02T11:59:08;25.30;99.90
11629;DHT22;5870;52.320;4.970;2022-08-02T12:01:35;25.30;99.90
11629;DHT22;5870;52.320;4.970;2022-08-02T12:04:02;25.40;99.90
11629;DHT22;5870;52.320;4.970;2022-08-02T12:06:29;25.40;99.90
11629;DHT22;5870;52.320;4.970;2022-08-02T12:11:32;25.70;99.90
11629;DHT22;5870;52.320;4.970;2022-08-02T12:13:58;25.70;99.90
11629;DHT22;5870;52.320;4.970;2022-08-02T12:16:24;25.70;99.90
11629;DHT22;5870;52.320;4.970;2022-08-02T12:19:09;25.70;99.90
11629;DHT22;5870;52.320;4.970;2022-08-02T12:21:44;25.80;99.90
11629;DHT22;5870;52.320;4.970;2022-08-02T12:24:10;25.80;99.90
11629;DHT22;5870;52.320;4.970;2022-08-02T12:26:46;25.90;99.90
11629;DHT22;5870;52.320;4.970;2022-08-02T12:29:12;26.00;99.90
11629;DHT22;5870;52.320;4.970;2022-08-02T12:31:40;26.20;99.90
11629;DHT22;5870;52.320;4.970;2022-08-02T12:34:17;26.30;99.90
11629;DHT22;5870;52.320;4.970;2022-08-02T12:36:57;26.30;99.90
11629;DHT22;5870;52.320;4.970;2022-08-02T12:39:45;26.40;99.90
11629;DHT22;5870;52.320;4.970;2022-08-02T12:42:12;26.30;99.90
11629;DHT22;5870;52.320;4.970;2022-08-02T12:44:58;26.30;99.90
11629;DHT22;5870;52.320;4.970;2022-08-02T12:47:25;26.30;99.90
11629;DHT22;5870;52.320;4.970;2022-08-02T12:50:29;26.30;99.90
11629;DHT22;5870;52.320;4.970;2022-08-02T12:53:08;26.40;99.90
11629;DHT22;5870;52.320;4.970;2022-08-02T12:55:36;26.60;99.90
11629;DHT22;5870;52.320;4.970;2022-08-02T12:58:05;26.70;99.90
11629;DHT22;5870;52.320;4.970;2022-08-02T13:00:36;26.90;99.90
11629;DHT22;5870;52.320;4.970;2022-08-02T13:03:02;26.90;99.90
11629;DHT22;5870;52.320;4.970;2022-08-02T13:05:29;27.00;99.90
11629;DHT22;5870;52.320;4.970;2022-08-02T13:07:55;27.10;99.90
11629;DHT22;5870;52.320;4.970;2022-08-02T13:10:22;27.10;99.90
11629;DHT22;5870;52.320;4.970;2022-08-02T13:12:48;27.10;99.90
11629;DHT22;5870;52.320;4.970;2022-08-02T13:15:14;27.20;99.90
11629;DHT22;5870;52.320;4.970;2022-08-02T13:17:40;27.20;99.90
11629;DHT22;5870;52.320;4.970;2022-08-02T13:20:08;27.10;99.90
11629;DHT22;5870;52.320;4.970;2022-08-02T13:22:35;27.10;99.90
11629;DHT22;5870;52.320;4.970;2022-08-02T13:25:01;27.10;99.90
11629;DHT22;5870;52.320;4.970;2022-08-02T13:27:26;27.10;99.90
11629;DHT22;5870;52.320;4.970;2022-08-02T13:29:53;27.30;99.90
11629;DHT22;5870;52.320;4.970;2022-08-02T13:32:20;27.50;99.90
11629;DHT22;5870;52.320;4.970;2022-08-02T13:34:46;27.60;99.90
11629;DHT22;5870;52.320;4.970;2022-08-02T13:37:11;27.70;99.90
11629;DHT22;5870;52.320;4.970;2022-08-02T13:39:37;27.80;99.90
11629;DHT22;5870;52.320;4.970;2022-08-02T13:42:03;28.00;99.90
11629;DHT22;5870;52.320;4.970;2022-08-02T13:44:29;28.20;99.90
11629;DHT22;5870;52.320;4.970;2022-08-02T13:46:54;28.30;99.90
11629;DHT22;5870;52.320;4.970;2022-08-02T13:49:20;28.40;99.90
11629;DHT22;5870;52.320;4.970;2022-08-02T13:51:47;28.50;99.90
11629;DHT22;5870;52.320;4.970;2022-08-02T13:54:13;28.60;99.90
11629;DHT22;5870;52.320;4.970;2022-08-02T13:56:39;28.80;99.90
11629;DHT22;5870;52.320;4.970;2022-08-02T13:59:04;29.00;99.90
11629;DHT22;5870;52.320;4.970;2022-08-02T14:01:30;29.10;99.90
11629;DHT22;5870;52.320;4.970;2022-08-02T14:03:57;29.20;99.90
11629;DHT22;5870;52.320;4.970;2022-08-02T14:06:24;29.40;99.90
11629;DHT22;5870;52.320;4.970;2022-08-02T14:08:50;29.50;99.90
11629;DHT22;5870;52.320;4.970;2022-08-02T14:11:16;29.70;99.90
11629;DHT22;5870;52.320;4.970;2022-08-02T14:13:42;29.70;99.90
11629;DHT22;5870;52.320;4.970;2022-08-02T14:16:08;29.80;99.90
11629;DHT22;5870;52.320;4.970;2022-08-02T14:18:33;29.80;99.90
11629;DHT22;5870;52.320;4.970;2022-08-02T14:20:59;29.90;99.90
11629;DHT22;5870;52.320;4.970;2022-08-02T14:23:25;29.90;99.90
11629;DHT22;5870;52.320;4.970;2022-08-02T14:25:51;29.90;99.90
11629;DHT22;5870;52.320;4.970;2022-08-02T14:28:17;30.00;99.90
11629;DHT22;5870;52.320;4.970;2022-08-02T14:30:43;30.00;99.90
11629;DHT22;5870;52.320;4.970;2022-08-02T14:33:08;29.90;99.90
11629;DHT22;5870;52.320;4.970;2022-08-02T14:35:34;29.90;99.90
11629;DHT22;5870;52.320;4.970;2022-08-02T14:38:00;29.90;99.90
11629;DHT22;5870;52.320;4.970;2022-08-02T14:40:26;30.10;99.90
11629;DHT22;5870;52.320;4.970;2022-08-02T14:42:52;30.10;99.90
11629;DHT22;5870;52.320;4.970;2022-08-02T14:45:18;30.10;99.90
11629;DHT22;5870;52.320;4.970;2022-08-02T14:47:47;30.20;99.90
11629;DHT22;5870;52.320;4.970;2022-08-02T14:50:14;30.20;99.90
11629;DHT22;5870;52.320;4.970;2022-08-02T14:52:41;30.30;99.90
11629;DHT22;5870;52.320;4.970;2022-08-02T14:55:07;30.40;99.90
11629;DHT22;5870;52.320;4.970;2022-08-02T14:57:32;30.50;99.90
11629;DHT22;5870;52.320;4.970;2022-08-02T14:59:58;30.60;99.90
11629;DHT22;5870;52.320;4.970;2022-08-02T15:02:28;30.70;99.90
11629;DHT22;5870;52.320;4.970;2022-08-02T15:04:54;30.70;99.90
11629;DHT22;5870;52.320;4.970;2022-08-02T15:07:20;30.80;99.90
11629;DHT22;5870;52.320;4.970;2022-08-02T15:09:45;31.00;99.90
11629;DHT22;5870;52.320;4.970;2022-08-02T15:12:11;31.00;99.90
11629;DHT22;5870;52.320;4.970;2022-08-02T15:14:38;31.10;99.90
11629;DHT22;5870;52.320;4.970;2022-08-02T15:17:05;31.10;99.90
11629;DHT22;5870;52.320;4.970;2022-08-02T15:19:31;31.10;99.90
11629;DHT22;5870;52.320;4.970;2022-08-02T15:21:57;31.20;99.90
11629;DHT22;5870;52.320;4.970;2022-08-02T15:24:22;31.20;99.90
11629;DHT22;5870;52.320;4.970;2022-08-02T15:26:48;31.20;99.90
11629;DHT22;5870;52.320;4.970;2022-08-02T15:29:16;31.30;99.90
11629;DHT22;5870;52.320;4.970;2022-08-02T15:31:42;31.30;99.90
11629;DHT22;5870;52.320;4.970;2022-08-02T15:34:08;31.40;99.90
11629;DHT22;5870;52.320;4.970;2022-08-02T15:36:33;31.40;99.90
11629;DHT22;5870;52.320;4.970;2022-08-02T15:38:59;31.40;99.90
11629;DHT22;5870;52.320;4.970;2022-08-02T15:41:25;31.40;99.90
11629;DHT22;5870;52.320;4.970;2022-08-02T15:43:50;31.50;99.90
11629;DHT22;5870;52.320;4.970;2022-08-02T15:46:16;31.50;99.90
11629;DHT22;5870;52.320;4.970;2022-08-02T15:48:41;31.40;99.90
11629;DHT22;5870;52.320;4.970;2022-08-02T15:51:07;31.50;99.90
11629;DHT22;5870;52.320;4.970;2022-08-02T15:53:33;31.60;99.90
11629;DHT22;5870;52.320;4.970;2022-08-02T15:55:58;31.60;99.90
11629;DHT22;5870;52.320;4.970;2022-08-02T15:58:24;31.60;99.90
11629;DHT22;5870;52.320;4.970;2022-08-02T16:00:51;31.70;99.90
11629;DHT22;5870;52.320;4.970;2022-08-02T16:03:17;31.70;99.90
11629;DHT22;5870;52.320;4.970;2022-08-02T16:05:42;31.60;99.90
11629;DHT22;5870;52.320;4.970;2022-08-02T16:08:08;31.60;99.90
11629;DHT22;5870;52.320;4.970;2022-08-02T16:10:34;31.60;99.90
11629;DHT22;5870;52.320;4.970;2022-08-02T16:12:59;31.60;99.90
11629;DHT22;5870;52.320;4.970;2022-08-02T16:15:43;31.60;99.90
11629;DHT22;5870;52.320;4.970;2022-08-02T16:18:09;31.60;99.90
11629;DHT22;5870;52.320;4.970;2022-08-02T16:20:35;31.70;99.90
11629;DHT22;5870;52.320;4.970;2022-08-02T16:23:00;31.70;99.90
11629;DHT22;5870;52.320;4.970;2022-08-02T16:25:26;31.80;99.90